createdAt,value
2019-03-13T00:00:46.087Z,1.87
2019-03-13T00:03:15.062Z,1.80
2019-03-13T00:05:44.414Z,2.20
2019-03-13T00:08:12.865Z,1.53
2019-03-13T00:10:41.256Z,3.43
2019-03-13T00:13:09.792Z,1.37
2019-03-13T00:15:38.778Z,1.33
2019-03-13T00:18:07.309Z,2.50
2019-03-13T00:20:35.811Z,1.60
2019-03-13T00:23:04.475Z,1.20
2019-03-13T00:25:34.186Z,1.93
2019-03-13T00:28:02.706Z,1.73
2019-03-13T00:30:31.190Z,0.90
2019-03-13T00:32:59.595Z,3.33
2019-03-13T00:35:28.086Z,1.67
2019-03-13T00:37:56.542Z,1.67
2019-03-13T00:40:25.014Z,1.77
2019-03-13T00:42:53.547Z,1.40
2019-03-13T00:45:23.051Z,1.70
2019-03-13T00:47:51.456Z,1.00
2019-03-13T00:50:27.406Z,1.57
2019-03-13T00:52:55.843Z,2.07
2019-03-13T00:55:25.510Z,1.20
2019-03-13T00:57:53.957Z,1.87
2019-03-13T01:00:40.538Z,2.23
2019-03-13T01:03:10.576Z,1.30
2019-03-13T01:05:52.372Z,1.07
2019-03-13T01:08:20.827Z,1.93
2019-03-13T01:10:49.252Z,3.47
2019-03-13T01:13:17.679Z,1.27
2019-03-13T01:15:46.108Z,1.07
2019-03-13T01:18:14.639Z,1.93
2019-03-13T01:20:45.773Z,1.40
2019-03-13T01:23:14.218Z,1.63
2019-03-13T01:25:43.808Z,1.40
2019-03-13T01:28:12.267Z,2.33
2019-03-13T01:30:42.380Z,1.63
2019-03-13T01:33:12.493Z,1.53
2019-03-13T01:35:42.572Z,5.27
2019-03-13T01:38:11.012Z,1.87
2019-03-13T01:40:41.135Z,2.70
2019-03-13T01:43:09.600Z,3.20
2019-03-13T01:45:39.565Z,2.47
2019-03-13T01:48:08.022Z,2.43
2019-03-13T01:50:37.628Z,2.50
2019-03-13T01:53:06.166Z,2.33
2019-03-13T01:55:37.610Z,4.47
2019-03-13T01:58:06.049Z,1.57
2019-03-13T02:00:34.663Z,1.97
2019-03-13T02:03:03.102Z,2.23
2019-03-13T02:05:32.624Z,1.63
2019-03-13T02:08:01.045Z,2.37
2019-03-13T02:10:29.474Z,2.20
2019-03-13T02:12:58.123Z,3.27
2019-03-13T04:43:00.159Z,3.10
2019-03-13T04:45:28.585Z,4.03
2019-03-13T04:47:57.001Z,5.30
2019-03-13T04:50:26.669Z,2.73
2019-03-13T04:52:55.093Z,4.03
2019-03-13T04:55:23.551Z,5.10
2019-03-13T04:57:52.066Z,3.93
2019-03-13T05:00:21.066Z,5.73
2019-03-13T05:02:49.514Z,4.70
2019-03-13T05:05:40.238Z,4.23
2019-03-13T05:08:09.160Z,5.50
2019-03-13T05:10:37.646Z,3.60
2019-03-13T05:13:06.108Z,2.97
2019-03-13T05:15:36.948Z,6.43
2019-03-13T05:18:05.475Z,5.80
2019-03-13T05:20:33.930Z,7.90
2019-03-13T05:23:02.400Z,2.77
2019-03-13T05:25:30.851Z,7.30
2019-03-13T05:27:59.499Z,5.13
2019-03-13T05:30:27.940Z,5.33
2019-03-13T05:32:56.352Z,5.17
2019-03-13T05:35:25.994Z,4.47
2019-03-13T05:37:54.461Z,5.60
2019-03-13T05:40:22.939Z,8.17
2019-03-13T05:42:51.397Z,5.83
2019-03-13T05:45:22.524Z,1.30
2019-03-13T05:47:51.050Z,5.77
2019-03-13T05:50:19.458Z,6.17
2019-03-13T05:52:47.980Z,6.60
2019-03-13T05:55:16.408Z,5.50
2019-03-13T05:57:44.816Z,7.03
2019-03-13T06:00:15.941Z,7.47
2019-03-13T06:02:47.581Z,2.47
2019-03-13T06:05:14.532Z,4.00
2019-03-13T06:07:42.994Z,8.43
2019-03-13T06:10:13.464Z,5.17
2019-03-13T06:12:41.912Z,8.27
2019-03-13T06:15:14.292Z,4.67
2019-03-13T06:17:42.759Z,6.27
2019-03-13T06:20:53.330Z,7.67
2019-03-13T06:23:18.655Z,5.20
2019-03-13T06:25:47.147Z,8.57
2019-03-13T06:28:16.764Z,6.37
2019-03-13T06:30:45.839Z,5.07
2019-03-13T06:33:16.173Z,6.50
2019-03-13T06:35:45.260Z,4.50
2019-03-13T06:38:16.023Z,3.57
2019-03-13T06:40:46.823Z,4.70
2019-03-13T06:43:16.834Z,4.83
2019-03-13T06:45:46.967Z,7.63
2019-03-13T06:48:17.314Z,7.17
2019-03-13T06:50:47.140Z,4.03
2019-03-13T06:53:29.608Z,4.30
2019-03-13T06:56:02.498Z,6.83
2019-03-13T06:58:52.302Z,5.97
2019-03-13T07:01:30.547Z,5.70
2019-03-13T07:04:14.668Z,8.07
2019-03-13T07:06:59.384Z,6.30
2019-03-13T07:09:31.019Z,7.40
2019-03-13T07:12:15.437Z,6.87
2019-03-13T07:14:46.822Z,4.60
2019-03-13T07:17:23.197Z,6.47
2019-03-13T07:19:53.377Z,4.00
2019-03-13T07:22:30.848Z,5.63
2019-03-13T07:25:20.410Z,4.33
2019-03-13T07:27:57.678Z,6.33
2019-03-13T07:30:36.868Z,5.30
2019-03-13T07:33:37.647Z,3.17
2019-03-13T07:36:30.050Z,7.63
2019-03-13T07:39:13.246Z,7.63
2019-03-13T07:42:08.520Z,6.77
2019-03-13T07:45:00.376Z,6.27
2019-03-13T07:47:41.128Z,5.17
2019-03-13T07:50:16.284Z,7.57
2019-03-13T07:52:53.292Z,7.00
2019-03-13T07:55:47.161Z,7.07
2019-03-13T07:58:21.294Z,5.50
2019-03-13T08:00:51.365Z,6.53
2019-03-13T08:03:44.686Z,7.33
2019-03-13T08:06:17.289Z,4.77
2019-03-13T08:09:11.296Z,7.73
2019-03-13T08:11:52.788Z,4.83
2019-03-13T08:14:23.242Z,6.87
2019-03-13T08:17:14.066Z,6.63
2019-03-13T08:19:49.450Z,8.40
2019-03-13T08:22:44.938Z,5.33
2019-03-13T08:25:22.697Z,7.83
2019-03-13T08:27:52.761Z,5.30
2019-03-13T08:30:51.508Z,7.47
2019-03-13T08:33:43.067Z,10.60
2019-03-13T08:36:16.312Z,6.87
2019-03-13T08:39:09.196Z,6.40
2019-03-13T08:44:45.052Z,4.13
2019-03-13T08:47:26.508Z,9.77
2019-03-13T08:50:08.743Z,6.87
2019-03-13T08:53:22.007Z,8.70
2019-03-13T08:56:10.562Z,5.93
2019-03-13T08:59:13.989Z,5.70
2019-03-13T09:02:06.233Z,5.20
2019-03-13T09:04:50.275Z,6.10
2019-03-13T09:07:23.520Z,4.27
2019-03-13T09:10:01.239Z,7.83
2019-03-13T09:13:01.558Z,8.43
2019-03-13T09:15:40.840Z,6.60
2019-03-13T09:18:21.778Z,8.70
2019-03-13T09:21:21.000Z,3.30
2019-03-13T09:24:02.875Z,5.63
2019-03-13T09:26:48.552Z,5.17
2019-03-13T09:29:37.430Z,6.13
2019-03-13T09:32:44.226Z,7.23
2019-03-13T09:35:23.981Z,8.17
2019-03-13T09:38:42.098Z,6.30
2019-03-13T09:41:18.694Z,7.33
2019-03-13T09:43:48.752Z,4.63
2019-03-13T09:46:18.864Z,8.03
2019-03-13T09:52:15.356Z,6.33
2019-03-13T09:55:18.097Z,7.57
2019-03-13T09:57:59.923Z,6.27
2019-03-13T10:00:44.804Z,2.50
2019-03-13T10:03:45.407Z,8.70
2019-03-13T10:06:16.931Z,7.63
2019-03-13T10:08:52.869Z,4.13
2019-03-13T10:11:25.754Z,8.63
2019-03-13T10:14:14.241Z,6.03
2019-03-13T10:16:49.260Z,6.90
2019-03-13T10:19:19.606Z,6.77
2019-03-13T10:22:15.191Z,5.50
2019-03-13T10:24:48.596Z,6.63
2019-03-13T10:27:18.810Z,7.80
2019-03-13T10:29:48.936Z,4.90
2019-03-13T10:32:28.748Z,9.17
2019-03-13T10:35:10.128Z,5.83
2019-03-13T10:37:49.853Z,5.83
2019-03-13T10:40:25.624Z,9.50
2019-03-13T10:43:12.465Z,8.30
2019-03-13T10:46:16.720Z,7.73
2019-03-13T10:48:54.285Z,5.80
2019-03-13T10:51:30.056Z,8.37
2019-03-13T10:54:16.294Z,5.90
2019-03-13T10:57:12.309Z,6.63
2019-03-13T10:59:47.986Z,8.00
2019-03-13T11:02:18.337Z,3.03
2019-03-13T11:04:48.588Z,4.43
2019-03-13T11:10:41.354Z,13.37
2019-03-13T11:13:17.008Z,9.77
2019-03-13T11:15:49.888Z,16.83
2019-03-13T11:18:19.946Z,8.77
2019-03-13T11:20:55.512Z,7.13
2019-03-13T11:23:51.220Z,6.93
2019-03-13T11:26:46.457Z,10.50
2019-03-13T11:29:20.742Z,6.63
2019-03-13T11:32:15.828Z,10.87
2019-03-13T11:35:09.425Z,11.03
2019-03-13T11:38:07.881Z,8.03
2019-03-13T11:40:45.565Z,6.07
2019-03-13T11:43:43.644Z,3.90
2019-03-13T11:46:40.787Z,5.43
2019-03-13T11:49:31.261Z,6.07
2019-03-13T11:52:08.739Z,7.30
2019-03-13T11:55:08.856Z,4.57
2019-03-13T11:57:57.263Z,10.17
2019-03-13T12:00:46.844Z,9.77
2019-03-13T12:03:19.756Z,4.73
2019-03-13T12:06:10.002Z,5.03
2019-03-13T12:09:04.820Z,3.80
2019-03-13T12:11:45.813Z,4.07
2019-03-13T12:14:22.459Z,4.70
2019-03-13T12:17:07.529Z,4.20
2019-03-13T12:19:49.156Z,5.50
2019-03-13T12:22:39.700Z,9.57
2019-03-13T12:25:14.582Z,9.13
2019-03-13T12:27:46.776Z,9.63
2019-03-13T12:30:39.016Z,9.40
2019-03-13T12:33:20.289Z,10.17
2019-03-13T12:36:09.088Z,5.73
2019-03-13T12:38:50.157Z,5.90
2019-03-13T12:41:38.610Z,11.40
2019-03-13T12:44:13.862Z,3.83
2019-03-13T12:46:44.680Z,7.73
2019-03-13T12:49:18.369Z,8.33
2019-03-13T12:52:07.452Z,5.97
2019-03-13T12:55:02.516Z,3.73
2019-03-13T12:57:42.622Z,5.47
2019-03-13T13:00:39.060Z,5.87
2019-03-13T13:03:21.613Z,8.40
2019-03-13T13:09:12.828Z,8.93
2019-03-13T13:11:45.051Z,12.87
2019-03-13T13:14:16.337Z,6.73
2019-03-13T13:17:27.321Z,9.47
2019-03-13T13:20:01.401Z,9.97
2019-03-13T13:22:38.274Z,9.80
2019-03-13T13:25:13.022Z,6.27
2019-03-13T13:27:45.628Z,8.37
2019-03-13T13:30:16.709Z,10.53
2019-03-13T13:32:51.233Z,8.20
2019-03-13T13:35:19.947Z,8.70
2019-03-13T13:37:48.399Z,12.77
2019-03-13T13:40:17.272Z,5.97
2019-03-13T13:42:48.351Z,9.17
2019-03-13T13:45:48.705Z,8.60
2019-03-13T13:48:16.999Z,6.67
2019-03-13T13:50:46.494Z,6.13
2019-03-13T13:53:24.863Z,5.17
2019-03-13T13:55:55.380Z,5.37
2019-03-13T13:58:28.408Z,8.27
2019-03-13T14:01:01.309Z,9.73
2019-03-13T14:03:51.538Z,8.43
2019-03-13T14:06:20.433Z,3.67
2019-03-13T14:08:48.844Z,6.27
2019-03-13T14:11:17.372Z,7.30
2019-03-13T14:13:46.114Z,6.20
2019-03-13T14:16:16.356Z,6.03
2019-03-13T14:18:45.421Z,6.43
2019-03-13T14:21:16.473Z,6.13
2019-03-13T14:23:45.901Z,10.23
2019-03-13T14:26:15.346Z,8.77
2019-03-13T14:28:46.513Z,8.80
2019-03-13T14:31:16.102Z,8.00
2019-03-13T14:33:46.047Z,5.43
2019-03-13T14:36:15.749Z,4.33
2019-03-13T14:38:45.152Z,10.50
2019-03-13T14:41:15.856Z,7.33
2019-03-13T14:43:45.620Z,12.23
2019-03-13T14:46:15.405Z,7.67
2019-03-13T14:48:46.895Z,7.53
2019-03-13T14:51:16.362Z,10.97
2019-03-13T14:53:46.577Z,8.67
2019-03-13T14:56:16.226Z,8.33
2019-03-13T14:58:46.216Z,7.57
2019-03-13T15:01:15.923Z,8.80
2019-03-13T15:03:45.659Z,7.07
2019-03-13T15:06:16.538Z,9.27
2019-03-13T15:08:46.650Z,8.63
2019-03-13T15:11:15.493Z,8.57
2019-03-13T15:13:46.302Z,6.93
2019-03-13T15:16:14.818Z,6.83
2019-03-13T15:18:45.068Z,6.57
2019-03-13T15:21:15.301Z,8.63
2019-03-13T15:23:46.069Z,8.70
2019-03-13T15:26:15.176Z,4.87
2019-03-13T15:28:45.274Z,5.93
2019-03-13T15:31:15.828Z,4.47
2019-03-13T15:33:44.769Z,4.37
2019-03-13T15:36:15.674Z,5.57
2019-03-13T15:38:44.652Z,7.63
2019-03-13T15:41:15.133Z,9.03
2019-03-13T15:43:44.322Z,7.53
2019-03-13T15:46:15.817Z,10.93
2019-03-13T15:48:47.396Z,8.13
2019-03-13T15:51:16.378Z,8.13
2019-03-13T15:53:45.397Z,5.53
2019-03-13T15:56:16.032Z,8.03
2019-03-13T15:58:46.389Z,8.63
2019-03-13T16:01:16.467Z,8.77
2019-03-13T16:03:45.380Z,15.30
2019-03-13T16:06:15.445Z,9.97
2019-03-13T16:08:44.720Z,4.33
2019-03-13T16:11:24.965Z,7.07
2019-03-13T16:13:53.550Z,9.57
2019-03-13T16:16:22.019Z,7.63
2019-03-13T16:18:50.489Z,11.67
2019-03-13T16:21:19.334Z,11.50
2019-03-13T16:23:47.850Z,15.93
2019-03-13T16:26:16.459Z,14.83
2019-03-13T16:28:45.747Z,5.13
2019-03-13T16:31:16.241Z,5.17
2019-03-13T16:33:45.649Z,4.13
2019-03-13T16:36:16.202Z,2.70
2019-03-13T16:38:45.974Z,2.10
2019-03-13T16:41:15.769Z,4.57
2019-03-13T16:43:45.631Z,2.13
2019-03-13T16:46:18.078Z,2.83
2019-03-13T16:48:46.714Z,3.43
2019-03-13T16:51:16.694Z,8.93
2019-03-13T16:53:45.774Z,3.23
2019-03-13T16:56:16.361Z,2.83
2019-03-13T16:58:45.506Z,2.97
2019-03-13T17:01:14.527Z,2.47
2019-03-13T17:03:45.075Z,4.10
2019-03-13T17:06:15.164Z,1.80
2019-03-13T17:08:45.825Z,7.13
2019-03-13T17:11:16.434Z,6.60
2019-03-13T17:13:50.353Z,4.60
2019-03-13T17:16:19.150Z,7.30
2019-03-13T17:18:47.588Z,6.17
2019-03-13T17:21:25.990Z,8.07
2019-03-13T17:23:55.214Z,6.20
2019-03-13T17:26:26.662Z,10.17
2019-03-13T17:28:57.489Z,7.00
2019-03-13T17:31:28.987Z,9.67
2019-03-13T17:34:01.689Z,3.80
2019-03-13T17:36:41.100Z,8.33
2019-03-13T17:39:23.856Z,10.73
2019-03-13T17:41:52.317Z,12.43
2019-03-13T17:44:20.812Z,8.30
2019-03-13T17:46:50.911Z,9.10
2019-03-13T17:49:30.781Z,7.37
2019-03-13T17:52:14.219Z,12.27
2019-03-13T17:54:46.354Z,7.83
2019-03-13T17:57:16.344Z,10.73
2019-03-13T17:59:46.230Z,4.10
2019-03-13T18:02:16.263Z,8.63
2019-03-13T18:04:46.380Z,5.03
2019-03-13T18:07:15.242Z,8.97
2019-03-13T18:09:45.833Z,7.47
2019-03-13T18:12:15.259Z,11.73
2019-03-13T18:14:44.670Z,6.27
2019-03-13T18:17:16.178Z,8.53
2019-03-13T18:19:49.934Z,6.23
2019-03-13T18:22:17.192Z,3.73
2019-03-13T18:24:47.110Z,6.40
2019-03-13T18:27:16.045Z,6.97
2019-03-13T18:29:49.794Z,9.23
2019-03-13T18:32:19.725Z,7.90
2019-03-13T18:34:48.234Z,5.10
2019-03-13T18:37:17.090Z,7.60
2019-03-13T18:39:48.425Z,7.20
2019-03-13T18:42:17.437Z,7.43
2019-03-13T18:44:46.100Z,8.83
2019-03-13T18:47:15.505Z,8.80
2019-03-13T18:49:46.505Z,9.07
2019-03-13T18:52:24.793Z,17.30
2019-03-13T18:54:53.581Z,10.10
2019-03-13T18:57:22.096Z,7.40
2019-03-13T18:59:50.681Z,8.03
2019-03-13T19:02:19.170Z,7.03
2019-03-13T19:04:48.583Z,10.83
2019-03-13T19:07:17.405Z,9.90
2019-03-13T19:09:46.333Z,10.67
2019-03-13T19:12:15.878Z,11.13
2019-03-13T19:14:45.821Z,11.07
2019-03-13T19:17:15.506Z,12.70
2019-03-13T19:19:47.232Z,8.43
2019-03-13T19:22:16.610Z,13.50
2019-03-13T19:24:46.221Z,9.03
2019-03-13T19:27:15.566Z,12.53
2019-03-13T19:29:45.203Z,14.27
2019-03-13T19:32:15.298Z,13.50
2019-03-13T19:34:45.941Z,11.13
2019-03-13T19:37:15.785Z,15.80
2019-03-13T19:39:46.419Z,13.83
2019-03-13T19:42:19.770Z,10.80
2019-03-13T19:44:48.859Z,9.60
2019-03-13T19:47:17.681Z,5.93
2019-03-13T19:49:46.613Z,12.00
2019-03-13T19:52:16.482Z,9.20
2019-03-13T19:54:47.070Z,9.67
2019-03-13T19:57:17.794Z,13.20
2019-03-13T19:59:46.769Z,11.27
2019-03-13T20:02:34.617Z,10.93
2019-03-13T20:05:18.087Z,11.83
2019-03-13T20:07:47.525Z,14.33
2019-03-13T20:10:34.646Z,10.83
2019-03-13T20:13:15.854Z,10.43
2019-03-13T20:15:46.610Z,8.07
2019-03-13T20:18:16.818Z,6.73
2019-03-13T20:20:45.993Z,8.77
2019-03-13T20:23:17.797Z,9.33
2019-03-13T20:25:46.616Z,12.70
2019-03-13T20:28:15.512Z,5.07
2019-03-13T20:30:45.505Z,5.17
2019-03-13T20:33:20.293Z,6.97
2019-03-13T20:35:49.312Z,5.30
2019-03-13T20:38:17.783Z,5.30
2019-03-13T20:40:51.502Z,5.13
2019-03-13T20:43:19.935Z,5.40
2019-03-13T20:46:00.884Z,5.73
2019-03-13T20:48:38.929Z,3.00
2019-03-13T20:51:22.713Z,7.93
2019-03-13T20:53:51.165Z,5.70
2019-03-13T20:56:20.901Z,7.30
2019-03-13T20:58:49.357Z,5.73
2019-03-13T21:01:17.873Z,5.43
2019-03-13T21:03:46.354Z,4.53
2019-03-13T21:06:18.124Z,5.67
2019-03-13T21:08:46.761Z,4.43
2019-03-13T21:11:15.655Z,4.53
2019-03-13T21:13:46.719Z,5.23
2019-03-13T21:16:16.475Z,6.83
2019-03-13T21:18:45.538Z,8.67
2019-03-13T21:21:16.709Z,8.20
2019-03-13T21:23:45.797Z,2.77
2019-03-13T21:26:15.099Z,6.10
2019-03-13T21:28:56.636Z,5.27
2019-03-13T21:31:25.046Z,8.97
2019-03-13T21:33:53.673Z,3.87
2019-03-13T21:36:22.194Z,4.03
2019-03-13T21:38:50.638Z,4.33
2019-03-13T21:41:19.135Z,7.97
2019-03-13T21:43:50.794Z,8.27
2019-03-13T21:46:17.985Z,5.90
2019-03-13T21:49:02.367Z,8.93
2019-03-13T21:51:45.474Z,7.17
2019-03-13T21:54:17.158Z,8.50
2019-03-13T21:56:45.717Z,6.50
2019-03-13T21:59:16.193Z,5.90
2019-03-13T22:01:46.805Z,5.83
2019-03-13T22:04:24.197Z,5.23
2019-03-13T22:06:46.777Z,7.57
2019-03-13T22:09:16.664Z,7.73
2019-03-13T22:11:46.069Z,2.90
2019-03-13T22:14:16.604Z,4.97
2019-03-13T22:16:46.189Z,5.60
2019-03-13T22:19:15.268Z,6.43
2019-03-13T22:21:46.139Z,5.10
2019-03-13T22:24:16.019Z,6.90
2019-03-13T22:26:46.298Z,4.03
2019-03-13T22:29:17.222Z,5.33
2019-03-13T22:31:46.084Z,3.87
2019-03-13T22:34:16.470Z,4.50
2019-03-13T22:36:46.193Z,3.67
2019-03-13T22:39:16.398Z,4.77
2019-03-13T22:41:45.827Z,3.97
2019-03-13T22:44:19.957Z,8.33
2019-03-13T22:46:50.286Z,4.57
2019-03-13T22:49:19.125Z,5.47
2019-03-13T22:51:47.548Z,6.43
2019-03-13T22:54:16.578Z,7.23
2019-03-13T22:56:46.663Z,6.23
2019-03-13T22:59:16.705Z,2.93
2019-03-13T23:01:46.405Z,11.70
2019-03-13T23:04:16.449Z,7.40
2019-03-13T23:06:52.887Z,10.17
2019-03-13T23:09:21.415Z,9.93
2019-03-13T23:11:49.858Z,6.83
2019-03-13T23:14:18.308Z,9.13
2019-03-13T23:16:46.768Z,12.53
2019-03-13T23:19:17.482Z,9.00
2019-03-13T23:21:46.485Z,8.23
2019-03-13T23:24:16.427Z,9.77
2019-03-13T23:26:46.367Z,10.60
2019-03-13T23:29:16.108Z,11.97
2019-03-13T23:31:45.810Z,11.07
2019-03-13T23:34:16.630Z,8.37
2019-03-13T23:36:46.056Z,8.53
2019-03-13T23:39:15.640Z,9.80
2019-03-13T23:41:54.223Z,9.10
2019-03-13T23:44:22.636Z,9.23
2019-03-13T23:46:51.070Z,13.63
2019-03-13T23:49:27.188Z,4.80
2019-03-13T23:51:55.893Z,6.27
2019-03-13T23:54:24.547Z,7.93
2019-03-13T23:56:52.982Z,6.93
2019-03-13T23:59:22.608Z,8.77
